Time;durP1;ratioP1;P1;durP2;ratioP2;P2;SDS_P1;SDS_P2;PMS_P1;PMS_P2;Temp;Humidity;BMP_temperature;BMP_pressure;BME280_temperature;BME280_humidity;BME280_pressure;Samples;Min_cycle;Max_cycle;Signal;HPM_P1;HPM_P2
2023/01/15 00:00:04;;;;;;;4.50;0.50;;;11.10;1.00;;;;;;5000945;28;20502;-50
2023/01/15 00:02:30;;;;;;;4.30;0.40;;;11.10;1.00;;;;;;4999233;28;20844;-51
2023/01/15 00:04:56;;;;;;;4.07;0.40;;;11.20;99.90;;;;;;4991550;28;20609;-50
2023/01/15 00:07:22;;;;;;;4.50;0.40;;;11.20;99.90;;;;;;4991234;28;20477;-50
2023/01/15 00:09:49;;;;;;;4.30;0.60;;;11.20;99.90;;;;;;5003559;28;20381;-50
2023/01/15 00:12:14;;;;;;;3.90;0.40;;;11.20;32.60;;;;;;5010131;28;20415;-50
2023/01/15 00:14:40;;;;;;;3.70;0.40;;;11.20;99.90;;;;;;5001076;28;20507;-50
2023/01/15 00:17:05;;;;;;;3.97;0.50;;;11.20;99.90;;;;;;5003195;28;20409;-50
2023/01/15 00:19:31;;;;;;;4.00;0.60;;;11.20;99.90;;;;;;4990999;28;20379;-51
2023/01/15 00:21:57;;;;;;;3.90;0.60;;;11.20;8.90;;;;;;4989118;28;20419;-50
2023/01/15 00:29:54;;;;;;;3.70;0.40;;;11.20;99.90;;;;;;4990817;28;20410;-50
2023/01/15 00:32:19;;;;;;;4.90;0.80;;;11.20;1.00;;;;;;4990845;28;20395;-50
2023/01/15 00:34:45;;;;;;;4.00;0.50;;;11.20;90.50;;;;;;4990243;28;20449;-49
2023/01/15 00:37:10;;;;;;;3.70;0.40;;;11.30;1.00;;;;;;5006036;28;20410;-50
2023/01/15 00:39:36;;;;;;;3.90;0.50;;;11.30;99.90;;;;;;5004990;28;20394;-49
2023/01/15 00:42:02;;;;;;;4.10;0.40;;;11.40;99.90;;;;;;4990832;28;20390;-50
2023/01/15 00:44:28;;;;;;;3.90;0.50;;;11.30;99.90;;;;;;4990192;28;20422;-51
2023/01/15 00:46:53;;;;;;;3.70;0.40;;;11.30;99.90;;;;;;4990207;28;20381;-50
2023/01/15 00:49:19;;;;;;;4.17;0.43;;;11.40;92.50;;;;;;4990650;28;20414;-50
2023/01/15 00:51:45;;;;;;;4.50;0.40;;;11.40;19.00;;;;;;4989763;28;20435;-49
2023/01/15 00:54:10;;;;;;;3.80;0.50;;;11.40;1.00;;;;;;4990841;28;20406;-51
2023/01/15 00:56:36;;;;;;;4.77;0.40;;;11.40;1.00;;;;;;4993347;28;20485;-51
2023/01/15 00:59:03;;;;;;;3.80;0.40;;;11.50;1.00;;;;;;5010170;28;20475;-50
2023/01/15 01:01:29;;;;;;;3.70;0.30;;;11.50;1.00;;;;;;5002435;28;20405;-52
2023/01/15 01:03:55;;;;;;;3.80;0.32;;;11.50;1.00;;;;;;4998984;28;20386;-50
2023/01/15 01:06:20;;;;;;;4.20;0.40;;;11.50;1.00;;;;;;5009611;28;20761;-49
2023/01/15 01:08:47;;;;;;;4.20;0.40;;;11.50;1.00;;;;;;5009237;28;20382;-50
2023/01/15 01:11:15;;;;;;;3.90;0.30;;;11.60;1.00;;;;;;5009857;28;20381;-50
2023/01/15 01:13:42;;;;;;;3.80;0.38;;;11.60;99.90;;;;;;5008963;28;20381;-50
2023/01/15 01:16:37;;;;;;;4.00;0.40;;;11.70;99.90;;;;;;5009408;28;20420;-50
2023/01/15 01:19:10;;;;;;;3.80;0.50;;;11.60;99.90;;;;;;4996759;28;20412;-50
2023/01/15 01:21:38;;;;;;;4.00;0.30;;;11.70;99.90;;;;;;5008486;28;20395;-51
2023/01/15 01:24:04;;;;;;;3.90;0.40;;;11.70;99.90;;;;;;5009796;28;20408;-50
2023/01/15 01:26:30;;;;;;;4.50;0.40;;;11.80;99.90;;;;;;5008813;28;20405;-52
2023/01/15 01:28:56;;;;;;;4.60;0.30;;;11.70;99.90;;;;;;5007669;28;20491;-50
2023/01/15 01:31:22;;;;;;;3.70;0.20;;;11.70;99.90;;;;;;5009452;28;20480;-50
2023/01/15 01:33:50;;;;;;;3.70;0.30;;;11.70;99.90;;;;;;5008476;28;20400;-50
2023/01/15 01:36:16;;;;;;;4.40;0.40;;;11.90;55.30;;;;;;5009112;28;20417;-51
2023/01/15 01:38:41;;;;;;;4.10;0.40;;;11.80;55.50;;;;;;5008182;28;20482;-50
2023/01/15 01:41:07;;;;;;;4.90;0.40;;;11.90;7.90;;;;;;5009061;28;20474;-51
2023/01/15 01:43:57;;;;;;;3.70;0.30;;;11.90;1.00;;;;;;5008306;28;20392;-51
2023/01/15 01:46:24;;;;;;;3.70;0.30;;;11.80;38.70;;;;;;5009231;28;20425;-50
2023/01/15 01:48:52;;;;;;;3.80;0.30;;;11.80;1.00;;;;;;5008026;28;20377;-50
2023/01/15 01:51:22;;;;;;;4.45;0.30;;;11.90;12.00;;;;;;5007252;28;20472;-50
2023/01/15 01:53:48;;;;;;;3.70;0.30;;;11.90;1.00;;;;;;4997059;28;21048;-50
2023/01/15 01:56:16;;;;;;;6.38;0.70;;;12.10;1.00;;;;;;5008784;28;20485;-50
2023/01/15 01:58:46;;;;;;;3.92;0.30;;;11.90;1.00;;;;;;5008018;28;20480;-50
2023/01/15 02:01:12;;;;;;;3.80;0.30;;;12.00;1.00;;;;;;5009170;28;20412;-51
2023/01/15 02:03:38;;;;;;;3.80;0.30;;;12.00;1.00;;;;;;5007673;28;20432;-51
2023/01/15 02:06:08;;;;;;;3.70;0.20;;;12.00;1.00;;;;;;5009070;28;20380;-50
2023/01/15 02:08:38;;;;;;;3.90;0.30;;;12.00;1.00;;;;;;5008061;28;20415;-51
2023/01/15 02:11:05;;;;;;;3.80;0.30;;;12.00;1.00;;;;;;5008942;28;20408;-51
2023/01/15 02:13:40;;;;;;;3.90;0.30;;;12.10;1.00;;;;;;5008890;28;20385;-52
2023/01/15 02:16:30;;;;;;;3.83;0.30;;;12.10;1.00;;;;;;5008683;28;20448;-49
2023/01/15 02:19:20;;;;;;;3.80;0.20;;;12.10;1.00;;;;;;5008577;28;20863;-50
2023/01/15 02:21:45;;;;;;;3.90;0.30;;;12.10;1.00;;;;;;5007777;28;20404;-50
2023/01/15 02:24:43;;;;;;;3.90;0.40;;;12.10;2.10;;;;;;5008407;28;20861;-50
2023/01/15 02:27:21;;;;;;;3.90;0.30;;;12.10;1.00;;;;;;5008821;28;20388;-50
2023/01/15 02:30:09;;;;;;;3.80;0.30;;;12.20;6.70;;;;;;5008098;28;20463;-50
2023/01/15 02:32:44;;;;;;;3.80;0.23;;;12.10;13.30;;;;;;5007754;28;20395;-50
2023/01/15 02:35:20;;;;;;;3.80;0.30;;;12.20;17.00;;;;;;5008407;28;20731;-50
2023/01/15 02:37:51;;;;;;;3.80;0.30;;;12.20;1.00;;;;;;5000271;28;20475;-50
2023/01/15 02:40:20;;;;;;;3.80;0.30;;;12.20;20.50;;;;;;4988722;28;20387;-50
2023/01/15 02:42:48;;;;;;;3.70;0.20;;;12.20;25.70;;;;;;4988068;28;20386;-49
2023/01/15 02:45:17;;;;;;;3.83;0.32;;;12.20;99.90;;;;;;4988431;28;20876;-50
2023/01/15 02:47:45;;;;;;;3.90;0.30;;;12.20;99.90;;;;;;4987934;28;20485;-49
2023/01/15 02:50:16;;;;;;;3.90;0.32;;;12.20;1.00;;;;;;4991612;28;20468;-49
2023/01/15 02:52:46;;;;;;;3.80;0.30;;;12.20;1.00;;;;;;4991282;28;20410;-49
2023/01/15 02:55:17;;;;;;;3.70;0.30;;;12.10;1.00;;;;;;5011949;28;20882;-49
2023/01/15 02:57:45;;;;;;;3.65;0.30;;;12.00;99.90;;;;;;5011288;28;20377;-49
2023/01/15 03:00:15;;;;;;;3.90;0.30;;;12.00;99.90;;;;;;5012179;28;20438;-50
2023/01/15 03:03:06;;;;;;;3.60;0.20;;;12.10;99.90;;;;;;5010928;28;20743;-49
2023/01/15 03:05:38;;;;;;;3.70;0.30;;;12.10;99.90;;;;;;5011082;28;20754;-51
2023/01/15 03:08:07;;;;;;;3.70;0.30;;;12.00;94.80;;;;;;5010935;28;20396;-49
2023/01/15 03:10:55;;;;;;;4.10;0.30;;;12.10;99.90;;;;;;5011230;28;20494;-51
2023/01/15 03:13:35;;;;;;;3.70;0.30;;;12.10;99.90;;;;;;5011679;28;20389;-50
2023/01/15 03:19:29;;;;;;;3.70;0.30;;;12.00;99.90;;;;;;5011091;28;20830;-50
2023/01/15 03:21:57;;;;;;;3.60;0.30;;;12.10;99.90;;;;;;4997589;28;20419;-50
2023/01/15 03:24:34;;;;;;;3.65;0.30;;;12.10;1.00;;;;;;5011259;28;20727;-51
2023/01/15 03:27:00;;;;;;;3.67;0.28;;;12.20;1.00;;;;;;5011392;28;20426;-51
2023/01/15 03:29:30;;;;;;;3.70;0.30;;;12.20;99.90;;;;;;5011510;28;20388;-51
2023/01/15 03:31:57;;;;;;;3.90;0.35;;;12.10;1.00;;;;;;5007990;28;20450;-50
2023/01/15 03:34:25;;;;;;;3.80;0.30;;;12.10;1.00;;;;;;5010932;28;20381;-51
2023/01/15 03:36:51;;;;;;;3.60;0.30;;;12.10;1.00;;;;;;5010320;28;21028;-51
2023/01/15 03:39:16;;;;;;;4.40;0.40;;;12.20;1.00;;;;;;5011164;28;20392;-51
2023/01/15 03:41:54;;;;;;;4.30;0.30;;;12.20;99.90;;;;;;5008871;28;20389;-51
2023/01/15 03:44:55;;;;;;;3.70;0.30;;;12.20;99.90;;;;;;5010853;28;20384;-51
2023/01/15 03:47:33;;;;;;;3.80;0.30;;;12.20;99.90;;;;;;5010844;28;20396;-51
2023/01/15 03:50:23;;;;;;;3.80;0.30;;;12.30;99.90;;;;;;5010856;28;20447;-51
2023/01/15 03:53:19;;;;;;;3.90;0.30;;;12.30;99.90;;;;;;5010388;28;20500;-51
2023/01/15 03:55:51;;;;;;;3.70;0.30;;;12.30;99.90;;;;;;5010296;28;20448;-50
2023/01/15 03:58:34;;;;;;;3.60;0.20;;;12.30;99.90;;;;;;5011081;28;20389;-51
2023/01/15 04:01:01;;;;;;;3.70;0.30;;;12.30;99.90;;;;;;5010758;28;20373;-51
2023/01/15 04:03:29;;;;;;;3.80;0.30;;;12.30;99.90;;;;;;5010556;28;20389;-51
2023/01/15 04:05:58;;;;;;;4.40;0.50;;;12.30;99.90;;;;;;5010129;28;20397;-50
2023/01/15 04:08:26;;;;;;;3.70;0.30;;;12.40;99.90;;;;;;5010614;28;20392;-51
2023/01/15 04:10:59;;;;;;;3.70;0.30;;;12.40;99.90;;;;;;5010274;28;20463;-50
2023/01/15 04:13:26;;;;;;;3.70;0.25;;;12.30;99.90;;;;;;5010395;28;20396;-50
2023/01/15 04:15:52;;;;;;;3.70;0.30;;;12.30;99.90;;;;;;5009500;28;20435;-50
2023/01/15 04:18:18;;;;;;;3.70;0.30;;;12.40;99.90;;;;;;5010544;28;20451;-50
2023/01/15 04:20:43;;;;;;;3.70;0.30;;;12.40;43.70;;;;;;5009910;28;20543;-51
2023/01/15 04:23:10;;;;;;;3.70;0.30;;;12.40;20.70;;;;;;5009695;28;20421;-51
2023/01/15 04:25:36;;;;;;;3.70;0.30;;;12.50;47.30;;;;;;5008404;28;20389;-51
2023/01/15 04:28:01;;;;;;;4.00;0.30;;;12.40;57.20;;;;;;5009590;28;20829;-50
2023/01/15 04:30:27;;;;;;;3.80;0.40;;;12.30;85.80;;;;;;5009445;28;20396;-51
2023/01/15 04:32:53;;;;;;;3.80;0.30;;;12.30;75.80;;;;;;5008157;28;20390;-52
2023/01/15 04:35:19;;;;;;;4.18;0.30;;;12.30;99.90;;;;;;5009033;28;20409;-51
2023/01/15 04:37:46;;;;;;;3.70;0.30;;;12.30;99.90;;;;;;5008748;28;20385;-51
2023/01/15 04:45:43;;;;;;;3.90;0.50;;;12.30;99.90;;;;;;5007891;28;20770;-51
2023/01/15 04:48:08;;;;;;;3.70;0.30;;;12.30;99.90;;;;;;5008884;28;20734;-50
2023/01/15 04:50:34;;;;;;;3.83;0.43;;;12.30;99.90;;;;;;5008445;28;20491;-52
2023/01/15 04:53:00;;;;;;;3.90;0.40;;;12.30;99.90;;;;;;5008751;28;20419;-51
2023/01/15 04:55:25;;;;;;;3.70;0.30;;;12.30;1.00;;;;;;5008595;28;20554;-50
2023/01/15 04:57:51;;;;;;;3.78;0.30;;;12.20;59.60;;;;;;5007928;28;20984;-51
2023/01/15 05:00:17;;;;;;;3.60;0.30;;;12.20;1.00;;;;;;5009116;28;20455;-50
2023/01/15 05:02:43;;;;;;;3.60;0.20;;;12.10;1.00;;;;;;5007934;28;20480;-51
2023/01/15 05:05:08;;;;;;;3.60;0.20;;;12.10;99.90;;;;;;5008266;28;20750;-50
2023/01/15 05:07:34;;;;;;;3.60;0.20;;;11.20;1.00;;;;;;5008189;28;20479;-52
2023/01/15 05:10:00;;;;;;;4.80;0.50;;;10.10;99.90;;;;;;5008135;28;20392;-51
2023/01/15 05:12:25;;;;;;;3.80;0.40;;;9.80;1.00;;;;;;5007812;28;20483;-51
2023/01/15 05:14:51;;;;;;;3.60;0.40;;;9.50;1.00;;;;;;5007774;28;20889;-51
2023/01/15 05:17:17;;;;;;;3.50;0.30;;;9.30;1.00;;;;;;4990631;28;20433;-51
2023/01/15 05:19:42;;;;;;;3.40;0.30;;;9.30;1.00;;;;;;4987970;28;20398;-51
2023/01/15 05:24:14;;;;;;;3.40;0.38;;;9.30;1.00;;;;;;5085253;28;20432;-49
2023/01/15 05:26:40;;;;;;;3.40;0.30;;;9.10;1.00;;;;;;5084695;28;20442;-50
2023/01/15 05:29:06;;;;;;;3.30;0.30;;;9.00;1.00;;;;;;5085731;28;20909;-49
2023/01/15 05:31:34;;;;;;;3.40;0.40;;;8.90;1.00;;;;;;5083865;28;20379;-50
2023/01/15 05:34:01;;;;;;;3.45;0.30;;;8.70;1.00;;;;;;5084757;28;20379;-49
2023/01/15 05:36:29;;;;;;;3.60;0.40;;;8.70;1.00;;;;;;5081679;28;21032;-49
2023/01/15 05:39:00;;;;;;;3.40;0.40;;;8.60;1.00;;;;;;5075787;28;20399;-49
2023/01/15 05:44:12;;;;;;;3.90;0.57;;;8.50;1.00;;;;;;5085447;28;20918;-49
2023/01/15 05:46:39;;;;;;;3.60;0.50;;;8.50;1.00;;;;;;5084560;28;20376;-49
2023/01/15 05:49:08;;;;;;;3.40;0.30;;;8.40;1.00;;;;;;5085339;28;20375;-49
2023/01/15 05:51:37;;;;;;;3.40;0.32;;;8.50;1.00;;;;;;5083481;28;20389;-50
2023/01/15 05:54:05;;;;;;;3.63;0.50;;;8.40;1.00;;;;;;5084929;28;20391;-50
2023/01/15 05:56:30;;;;;;;3.40;0.40;;;8.40;1.00;;;;;;5085560;28;20848;-49
2023/01/15 05:58:56;;;;;;;4.30;0.60;;;8.30;1.00;;;;;;5084554;28;20478;-49
2023/01/15 06:01:22;;;;;;;3.78;0.70;;;8.40;1.00;;;;;;5084844;28;20437;-49
2023/01/15 06:03:48;;;;;;;3.70;0.60;;;9.30;1.00;;;;;;5083917;28;20531;-49
2023/01/15 06:06:16;;;;;;;3.57;0.60;;;8.30;1.00;;;;;;5084768;28;20466;-50
2023/01/15 06:08:41;;;;;;;4.38;0.90;;;8.30;1.00;;;;;;5083692;28;20896;-60
2023/01/15 06:11:07;;;;;;;3.60;0.65;;;8.20;1.00;;;;;;5084608;28;20411;-49
2023/01/15 06:13:33;;;;;;;3.80;0.60;;;8.20;1.00;;;;;;5084657;28;20414;-50
2023/01/15 06:16:00;;;;;;;4.50;0.90;;;8.10;1.00;;;;;;5084205;28;20390;-50
2023/01/15 06:18:26;;;;;;;3.85;0.70;;;8.00;1.00;;;;;;5084075;28;20444;-50
2023/01/15 06:20:51;;;;;;;3.70;0.70;;;8.10;1.00;;;;;;5083743;28;20391;-49
2023/01/15 06:23:18;;;;;;;3.60;0.60;;;8.10;1.00;;;;;;5084283;28;20926;-49
2023/01/15 06:25:44;;;;;;;3.80;0.60;;;8.00;1.00;;;;;;5082469;28;20860;-50
2023/01/15 06:28:10;;;;;;;3.50;0.30;;;7.90;1.00;;;;;;5084081;28;20383;-50
2023/01/15 06:30:39;;;;;;;3.30;0.40;;;7.90;1.00;;;;;;5083815;28;20422;-51
2023/01/15 06:33:06;;;;;;;3.17;0.30;;;7.90;1.00;;;;;;5084139;28;20490;-50
2023/01/15 06:35:32;;;;;;;3.40;0.30;;;7.80;1.00;;;;;;5070653;28;20848;-49
2023/01/15 06:37:57;;;;;;;3.40;0.30;;;7.80;1.00;;;;;;5070109;28;20388;-50
2023/01/15 06:40:25;;;;;;;3.20;0.20;;;7.50;1.00;;;;;;5070980;28;20459;-49
2023/01/15 06:48:25;;;;;;;3.50;0.50;;;7.50;1.00;;;;;;5070532;28;20872;-46
2023/01/15 06:50:52;;;;;;;3.67;0.50;;;7.70;1.00;;;;;;5068316;28;20388;-48
2023/01/15 06:53:18;;;;;;;3.50;0.57;;;7.90;1.00;;;;;;5070757;28;20454;-46
2023/01/15 06:55:44;;;;;;;4.78;0.80;;;8.80;99.90;;;;;;5070094;28;20383;-47
2023/01/15 06:58:10;;;;;;;3.50;0.43;;;9.50;99.90;;;;;;5070184;28;20372;-48
2023/01/15 07:00:36;;;;;;;3.30;0.30;;;7.70;99.90;;;;;;5069673;28;20464;-54
2023/01/15 07:03:03;;;;;;;3.40;0.32;;;8.40;99.90;;;;;;5069983;28;20457;-46
2023/01/15 07:05:29;;;;;;;5.78;1.35;;;7.70;99.90;;;;;;5062441;28;20395;-46
2023/01/15 07:07:56;;;;;;;5.50;0.80;;;7.50;99.90;;;;;;5070166;28;20379;-47
2023/01/15 07:10:21;;;;;;;4.00;0.70;;;7.60;99.90;;;;;;5069869;28;20864;-46
2023/01/15 07:12:47;;;;;;;3.40;0.20;;;7.50;99.90;;;;;;5069100;28;20405;-50
2023/01/15 07:15:13;;;;;;;3.30;0.20;;;9.00;91.90;;;;;;5069886;28;20410;-50
2023/01/15 07:17:38;;;;;;;3.60;0.30;;;7.00;99.90;;;;;;5069282;28;20403;-50
2023/01/15 07:20:04;;;;;;;4.23;0.70;;;7.00;1.00;;;;;;5066026;28;20483;-50
2023/01/15 07:22:30;;;;;;;3.30;0.20;;;6.70;1.00;;;;;;5066053;28;20769;-50
2023/01/15 07:24:56;;;;;;;3.40;0.30;;;6.60;1.00;;;;;;5069627;28;20380;-50
2023/01/15 07:27:22;;;;;;;5.00;0.80;;;6.70;1.00;;;;;;5069683;28;20392;-51
2023/01/15 07:29:49;;;;;;;4.00;0.60;;;6.80;1.00;;;;;;5069175;28;20383;-50
2023/01/15 07:32:15;;;;;;;3.50;0.40;;;7.80;1.00;;;;;;5069212;28;21184;-51
2023/01/15 07:34:40;;;;;;;3.50;0.40;;;6.60;1.00;;;;;;5068642;28;20376;-51
2023/01/15 07:37:06;;;;;;;3.60;0.40;;;6.50;1.00;;;;;;5069420;28;20755;-50
2023/01/15 07:39:32;;;;;;;3.50;0.50;;;6.50;1.00;;;;;;5065604;28;20441;-50
2023/01/15 07:50:24;;;;;;;3.40;0.40;;;7.90;1.00;;;;;;5065506;28;20395;-50
2023/01/15 07:52:51;;;;;;;3.43;0.33;;;6.70;99.90;;;;;;5067236;28;20465;-51
2023/01/15 07:55:16;;;;;;;3.35;0.30;;;7.80;1.00;;;;;;5060101;28;20396;-51
2023/01/15 07:57:42;;;;;;;3.30;0.30;;;6.60;1.00;;;;;;5048730;28;20710;-49
2023/01/15 08:00:20;;;;;;;3.30;0.20;;;6.50;1.00;;;;;;5055507;28;20863;-49
2023/01/15 08:02:48;;;;;;;3.30;0.30;;;6.60;1.00;;;;;;5060156;28;20449;-50
2023/01/15 08:05:14;;;;;;;3.30;0.20;;;8.00;1.00;;;;;;5061221;28;20416;-51
2023/01/15 08:07:41;;;;;;;3.30;0.20;;;6.50;1.00;;;;;;5063521;28;20825;-50
2023/01/15 08:10:12;;;;;;;3.33;0.30;;;6.60;1.00;;;;;;5062660;28;20401;-50
2023/01/15 08:15:23;;;;;;;3.63;0.50;;;7.90;1.00;;;;;;5048888;28;20384;-48
2023/01/15 08:17:50;;;;;;;3.30;0.30;;;6.70;1.00;;;;;;5048312;28;20464;-49
2023/01/15 08:20:24;;;;;;;3.30;0.30;;;6.50;1.00;;;;;;5052266;28;20417;-50
2023/01/15 08:22:50;;;;;;;3.40;0.30;;;6.50;1.00;;;;;;5053339;28;20417;-50
2023/01/15 08:25:24;;;;;;;3.30;0.20;;;8.00;1.00;;;;;;5061762;28;20449;-50
2023/01/15 08:27:50;;;;;;;3.30;0.30;;;6.50;1.00;;;;;;5066689;28;20682;-49
2023/01/15 08:30:22;;;;;;;3.20;0.20;;;6.40;1.00;;;;;;5066835;28;20399;-49
2023/01/15 08:32:48;;;;;;;4.10;0.20;;;6.50;1.00;;;;;;5068194;28;20387;-50
2023/01/15 08:35:14;;;;;;;3.50;0.30;;;6.50;99.90;;;;;;5052693;28;21164;-50
2023/01/15 08:37:41;;;;;;;4.30;0.30;;;6.40;99.90;;;;;;5062893;28;20431;-50
2023/01/15 08:40:08;;;;;;;3.25;0.20;;;6.30;99.90;;;;;;5060119;28;20786;-50
2023/01/15 08:42:34;;;;;;;3.40;0.30;;;6.30;99.90;;;;;;5059100;28;20499;-50
2023/01/15 08:44:59;;;;;;;3.80;0.30;;;6.30;99.90;;;;;;5048197;28;20408;-50
2023/01/15 08:47:25;;;;;;;3.40;0.30;;;6.30;99.90;;;;;;5048278;28;20373;-50
2023/01/15 08:49:50;;;;;;;3.60;0.50;;;6.30;99.90;;;;;;5050616;28;20376;-50
2023/01/15 08:52:16;;;;;;;3.30;0.30;;;6.20;99.90;;;;;;5064275;28;20911;-50
2023/01/15 08:54:42;;;;;;;4.00;0.40;;;6.20;99.90;;;;;;5056624;28;20379;-51
2023/01/15 08:57:10;;;;;;;6.00;0.80;;;6.10;99.90;;;;;;5067681;28;20380;-50
2023/01/15 08:59:36;;;;;;;3.42;0.40;;;6.10;1.00;;;;;;5067355;28;20745;-51
2023/01/15 09:02:01;;;;;;;3.67;0.50;;;6.90;99.90;;;;;;5066428;28;20392;-50
2023/01/15 09:04:27;;;;;;;4.00;0.40;;;6.10;1.00;;;;;;5062244;28;20407;-51
2023/01/15 09:06:53;;;;;;;3.30;0.30;;;6.70;99.90;;;;;;5060541;28;20395;-50
2023/01/15 09:09:18;;;;;;;3.60;0.40;;;7.90;1.00;;;;;;5048381;28;20388;-49
2023/01/15 09:11:44;;;;;;;3.40;0.30;;;6.10;1.00;;;;;;5049309;28;20381;-49
2023/01/15 09:14:12;;;;;;;3.40;0.30;;;6.10;99.90;;;;;;5060005;28;20873;-50
2023/01/15 09:16:38;;;;;;;3.50;0.45;;;6.00;1.00;;;;;;5066748;28;20388;-51
2023/01/15 09:19:05;;;;;;;4.10;0.43;;;5.90;1.00;;;;;;5058707;28;20378;-51
2023/01/15 09:21:31;;;;;;;3.60;0.30;;;6.00;1.00;;;;;;5063943;28;20390;-51
2023/01/15 09:23:57;;;;;;;3.30;0.30;;;7.50;99.90;;;;;;5064197;28;20430;-50
2023/01/15 09:26:35;;;;;;;3.50;0.30;;;5.80;1.00;;;;;;5064051;28;20399;-51
2023/01/15 09:29:01;;;;;;;3.30;0.22;;;5.90;1.00;;;;;;5051033;28;20381;-51
2023/01/15 09:31:27;;;;;;;4.50;0.50;;;6.80;1.00;;;;;;5046590;28;20413;-51
2023/01/15 09:33:53;;;;;;;3.50;0.30;;;6.70;1.00;;;;;;5047626;28;20512;-51
2023/01/15 09:36:23;;;;;;;3.40;0.30;;;7.90;1.00;;;;;;5047947;28;20468;-52
2023/01/15 09:38:49;;;;;;;3.50;0.50;;;6.00;1.00;;;;;;5047066;28;20382;-50
2023/01/15 09:44:34;;;;;;;3.40;0.40;;;5.90;1.00;;;;;;5047167;28;20767;-51
2023/01/15 09:47:14;;;;;;;4.10;0.50;;;6.00;1.00;;;;;;5046036;28;20416;-52
2023/01/15 09:49:57;;;;;;;3.55;0.52;;;6.10;1.00;;;;;;5047286;28;20393;-51
2023/01/15 09:52:29;;;;;;;4.65;0.30;;;6.20;1.00;;;;;;5047116;28;20759;-51
2023/01/15 09:55:16;;;;;;;3.90;0.50;;;6.10;1.00;;;;;;5046598;28;20431;-51
2023/01/15 09:57:45;;;;;;;3.70;0.40;;;6.10;1.00;;;;;;5046618;28;20390;-51
2023/01/15 10:00:18;;;;;;;3.50;0.40;;;6.10;99.90;;;;;;5057399;28;20436;-51
2023/01/15 10:02:50;;;;;;;3.60;0.30;;;6.00;99.90;;;;;;5046804;28;20431;-50
2023/01/15 10:05:25;;;;;;;3.70;0.30;;;5.80;99.90;;;;;;5047454;28;20811;-50
2023/01/15 10:08:10;;;;;;;3.60;0.40;;;6.80;99.90;;;;;;5048568;28;20397;-50
2023/01/15 10:10:46;;;;;;;3.40;0.50;;;5.80;99.90;;;;;;5055712;28;20486;-51
2023/01/15 10:13:26;;;;;;;3.50;0.40;;;5.80;1.00;;;;;;5066057;28;20379;-50
2023/01/15 10:15:52;;;;;;;3.63;0.40;;;5.70;99.90;;;;;;5066421;28;20912;-50
2023/01/15 10:18:23;;;;;;;3.30;0.30;;;5.60;99.90;;;;;;5071343;28;20391;-51
2023/01/15 10:21:25;;;;;;;3.75;0.70;;;5.50;99.90;;;;;;5071491;28;20394;-51
2023/01/15 10:24:02;;;;;;;3.30;0.20;;;5.50;99.90;;;;;;5067415;28;20427;-52
2023/01/15 10:26:53;;;;;;;4.40;0.88;;;5.30;99.90;;;;;;5065310;28;20390;-50
2023/01/15 10:29:43;;;;;;;6.40;1.00;;;5.40;99.90;;;;;;5072262;28;20387;-51
2023/01/15 10:32:20;;;;;;;6.70;1.95;;;5.30;99.90;;;;;;5063012;28;20700;-51
2023/01/15 10:34:49;;;;;;;10.48;2.20;;;5.30;99.90;;;;;;5081856;28;20409;-51
2023/01/15 10:37:40;;;;;;;4.05;0.52;;;5.20;99.90;;;;;;5071054;28;20445;-51
2023/01/15 10:40:45;;;;;;;3.80;0.50;;;5.10;99.90;;;;;;5069003;28;20997;-51
2023/01/15 10:43:42;;;;;;;3.50;0.40;;;5.20;1.00;;;;;;5072707;28;20417;-51
2023/01/15 10:46:16;;;;;;;4.10;0.60;;;4.90;99.90;;;;;;5063964;28;20392;-51
2023/01/15 10:48:43;;;;;;;3.60;0.40;;;4.80;1.00;;;;;;5071776;28;20432;-50
2023/01/15 10:51:16;;;;;;;3.50;0.40;;;4.80;1.00;;;;;;5076565;28;20917;-50
2023/01/15 10:53:46;;;;;;;3.50;0.30;;;5.90;1.00;;;;;;5074821;28;20606;-52
2023/01/15 10:56:44;;;;;;;3.80;0.70;;;4.60;1.00;;;;;;5085952;28;20442;-51
2023/01/15 10:59:23;;;;;;;3.40;0.30;;;4.60;1.00;;;;;;5070248;28;20399;-52
2023/01/15 11:01:52;;;;;;;4.90;0.50;;;4.60;1.00;;;;;;5071244;28;20475;-50
2023/01/15 11:04:18;;;;;;;3.80;0.40;;;4.50;1.00;;;;;;5069161;28;20412;-50
2023/01/15 11:06:44;;;;;;;3.43;0.30;;;6.40;1.00;;;;;;5067442;28;20400;-51
2023/01/15 11:09:22;;;;;;;3.30;0.20;;;4.50;1.00;;;;;;5069470;28;20760;-51
2023/01/15 11:20:27;;;;;;;5.20;0.50;;;4.60;1.00;;;;;;5090059;28;20547;-51
2023/01/15 11:22:55;;;;;;;3.30;0.20;;;4.50;1.00;;;;;;5089374;28;20429;-51
2023/01/15 11:25:29;;;;;;;4.10;0.70;;;6.10;1.00;;;;;;5076387;28;20748;-51
2023/01/15 11:27:56;;;;;;;4.32;0.40;;;4.40;1.00;;;;;;5068287;28;20380;-51
2023/01/15 11:30:36;;;;;;;3.70;0.30;;;6.30;1.00;;;;;;5052906;28;20468;-51
2023/01/15 11:33:03;;;;;;;4.70;0.40;;;4.50;1.00;;;;;;5060599;28;20522;-51
2023/01/15 11:35:30;;;;;;;3.60;0.43;;;4.20;1.00;;;;;;5069638;28;20387;-51
2023/01/15 11:38:05;;;;;;;5.30;0.70;;;6.10;1.00;;;;;;5069154;28;20384;-52
2023/01/15 11:40:31;;;;;;;3.60;0.40;;;4.20;1.00;;;;;;5064919;28;20409;-51
2023/01/15 11:51:42;;;;;;;3.60;0.40;;;6.10;1.00;;;;;;5049197;28;20384;-49
2023/01/15 11:54:11;;;;;;;6.50;1.60;;;4.10;1.00;;;;;;5049183;28;20740;-47
2023/01/15 11:56:41;;;;;;;3.80;0.68;;;4.40;99.90;;;;;;5052413;28;20762;-53
2023/01/15 11:59:11;;;;;;;4.60;1.10;;;5.30;1.00;;;;;;5069161;28;20847;-49
2023/01/15 12:01:49;;;;;;;3.60;0.60;;;4.40;1.00;;;;;;5069077;28;20376;-53
2023/01/15 12:04:29;;;;;;;3.88;0.55;;;5.20;99.90;;;;;;5068997;28;20443;-49
2023/01/15 12:06:56;;;;;;;3.65;0.50;;;4.40;99.90;;;;;;5068334;28;20383;-48
2023/01/15 12:09:57;;;;;;;4.10;0.53;;;4.90;99.90;;;;;;5068927;28;20562;-49
2023/01/15 12:12:38;;;;;;;4.07;0.70;;;4.50;1.00;;;;;;5046373;28;20389;-48
2023/01/15 12:15:27;;;;;;;4.50;0.50;;;4.50;1.00;;;;;;5065736;28;20400;-48
2023/01/15 12:18:30;;;;;;;3.70;0.60;;;4.60;1.00;;;;;;5068211;28;20467;-46
2023/01/15 12:21:03;;;;;;;3.30;0.30;;;4.60;1.00;;;;;;5057170;28;20403;-47
2023/01/15 12:23:58;;;;;;;4.00;0.40;;;4.60;1.00;;;;;;5050421;28;20428;-47
2023/01/15 12:26:28;;;;;;;3.80;0.30;;;4.60;99.90;;;;;;5052218;28;20421;-50
2023/01/15 12:28:57;;;;;;;3.40;0.30;;;5.80;1.00;;;;;;5068115;28;20387;-47
2023/01/15 12:31:37;;;;;;;3.80;0.30;;;4.70;99.90;;;;;;5068670;28;20380;-46
2023/01/15 12:34:05;;;;;;;3.50;0.40;;;4.80;99.90;;;;;;5067553;28;20415;-47
2023/01/15 12:36:54;;;;;;;3.63;0.40;;;4.90;1.00;;;;;;5069139;28;20383;-47
2023/01/15 12:39:35;;;;;;;3.40;0.30;;;4.90;1.00;;;;;;5067164;28;20403;-45
2023/01/15 12:45:03;;;;;;;3.50;0.30;;;6.30;1.00;;;;;;5064780;28;20402;-47
2023/01/15 12:48:06;;;;;;;3.90;0.40;;;5.00;99.90;;;;;;5062646;28;20795;-51
2023/01/15 12:50:38;;;;;;;4.20;0.50;;;4.90;1.00;;;;;;5062385;28;20433;-50
2023/01/15 12:53:24;;;;;;;4.00;0.50;;;6.70;1.00;;;;;;5067849;28;20403;-50
2023/01/15 12:55:52;;;;;;;7.00;0.50;;;5.00;15.00;;;;;;5067918;28;20422;-51
2023/01/15 12:58:51;;;;;;;3.80;0.43;;;6.50;99.90;;;;;;5062146;28;20454;-51
2023/01/15 13:01:38;;;;;;;6.70;0.40;;;5.20;99.90;;;;;;5062280;28;20435;-50
2023/01/15 13:04:36;;;;;;;3.60;0.30;;;5.40;99.90;;;;;;5047912;28;20401;-50
2023/01/15 13:07:19;;;;;;;4.90;0.40;;;5.50;1.00;;;;;;5047362;28;20410;-50
2023/01/15 13:10:07;;;;;;;4.40;0.60;;;5.50;99.90;;;;;;5047511;28;20385;-50
2023/01/15 13:12:33;;;;;;;3.60;0.30;;;5.50;99.90;;;;;;5061400;28;20400;-52
2023/01/15 13:15:00;;;;;;;4.15;0.40;;;5.70;99.90;;;;;;5067102;28;20390;-51
2023/01/15 13:17:43;;;;;;;5.00;0.30;;;5.80;1.00;;;;;;5065654;28;20458;-50
2023/01/15 13:20:13;;;;;;;6.88;0.50;;;5.80;1.00;;;;;;5058112;28;20407;-49
2023/01/15 13:23:06;;;;;;;6.55;0.85;;;5.80;1.00;;;;;;5064459;28;20423;-51
2023/01/15 13:25:50;;;;;;;5.70;0.40;;;5.60;1.00;;;;;;5047155;28;20393;-50
2023/01/15 13:28:30;;;;;;;6.80;0.60;;;5.60;1.00;;;;;;5046776;28;20391;-49
2023/01/15 13:31:12;;;;;;;3.75;0.35;;;5.60;1.00;;;;;;5046669;28;20377;-50
2023/01/15 13:33:49;;;;;;;5.10;0.90;;;5.70;1.00;;;;;;5047784;28;20486;-50
2023/01/15 13:36:39;;;;;;;7.75;0.60;;;5.60;99.90;;;;;;5048124;28;20385;-51
2023/01/15 13:39:07;;;;;;;6.07;0.50;;;6.00;99.90;;;;;;5047693;28;20465;-51
2023/01/15 13:44:26;;;;;;;3.80;0.50;;;6.40;1.00;;;;;;5047345;28;20910;-50
2023/01/15 13:47:04;;;;;;;3.80;0.40;;;6.50;1.00;;;;;;5051205;28;20377;-52
2023/01/15 13:49:46;;;;;;;3.90;0.40;;;6.50;1.00;;;;;;5052498;28;20432;-50
2023/01/15 13:52:29;;;;;;;4.80;0.50;;;6.70;1.00;;;;;;5051881;28;20508;-50
2023/01/15 13:54:59;;;;;;;5.20;0.40;;;6.60;99.90;;;;;;5051435;28;20413;-50
2023/01/15 13:57:33;;;;;;;4.70;0.40;;;6.60;99.90;;;;;;5052129;28;20377;-50
2023/01/15 14:00:00;;;;;;;4.00;0.30;;;6.70;99.90;;;;;;5050827;28;20382;-50
2023/01/15 14:02:33;;;;;;;7.40;0.60;;;6.70;99.90;;;;;;5051476;28;20746;-51
2023/01/15 14:05:19;;;;;;;3.80;0.35;;;6.70;99.90;;;;;;5051110;28;20874;-50
2023/01/15 14:07:44;;;;;;;3.70;0.20;;;6.80;99.90;;;;;;5050428;28;20850;-51
2023/01/15 14:10:16;;;;;;;4.07;0.32;;;6.70;99.90;;;;;;5051541;28;20442;-50
2023/01/15 14:12:45;;;;;;;3.80;0.30;;;6.80;99.90;;;;;;5050973;28;20398;-52
2023/01/15 14:15:39;;;;;;;11.30;0.70;;;6.70;99.90;;;;;;5070624;28;20467;-51
2023/01/15 14:18:23;;;;;;;6.30;0.50;;;6.80;99.90;;;;;;5071248;28;20463;-50
2023/01/15 14:21:09;;;;;;;3.90;0.40;;;6.80;99.90;;;;;;5070765;28;20403;-51